Terminal Aerodrome Forecast
Issued by NWS

Home | Current Version | Previous Version | Text Only | Print | Product List | Glossary On
Versions: 1 2 3 4 5 6 7 8 9 10 11 12 13 14 15 16 17 18 19 20
000
FTUS46 KOTX 241720
TAFSFF
TAF
KSFF 241720Z 2418/2518 23011KT P6SM VCSH BKN030
     FM241900 22012G20KT P6SM -SHRA BKN035 BKN050
     FM242100 22013G22KT P6SM -SHRA VCTS SCT050CB BKN060
     FM250200 22006KT P6SM BKN070
     FM250900 VRB03KT P6SM FEW070 BKN150=

USA.gov is the U.S. government's official web portal to all federal, state and local government web resources and services.